weather.gov     
National Weather Service

Terminal Aerodrome Forecast
NWS Homepage
This page is being discontinued on March 12, 2014.
The same data is available at this site. Please update your bookmarks.
Thank you, and we apologize for the inconvenience.
Please send an email to SR-SRH.Webmaster@noaa.gov with any concerns.


Current Version
Previous Version:    01  02  03  04  05  06  07  08  09  10  11  12  13  14  
[Printable]
603
FTUS41 KBOX 020821 AAA
TAFBDL
TAF AMD
KBDL 020821Z 0208/0312 VRB03KT P6SM -SHRA SCT080 BKN100
     FM021200 02004KT P6SM -SHRA OVC060
     FM021700 06004KT P6SM OVC030
     FM021900 07004KT P6SM OVC060
     FM030600 VRB03KT 3SM BR BKN090=


603
FTUS41 KBOX 020821 AAA
TAFBDL
TAF AMD
KBDL 020821Z 0208/0312 VRB03KT P6SM -SHRA SCT080 BKN100
     FM021200 02004KT P6SM -SHRA OVC060
     FM021700 06004KT P6SM OVC030
     FM021900 07004KT P6SM OVC060
     FM030600 VRB03KT 3SM BR BKN090=




U.S. Dept. of Commerce
NOAA National Weather Service
1325 East West Highway
Silver Spring, MD 20910
E-mail: w-nws.webmaster@noaa.gov
Page last modified: May 16, 2007
NATIONAL WEATHER SERVICE: for Safety, for Work, for Fun - FOR LIFE